Bay De Verde, Canada
Current Conditions -  °F | °C
As of 3:00 AM on Tuesday 21 Oct 2014 (Local Time) from CYYT Reporting Station
Broken Clouds Broken Clouds  
Wind Chill: 36°   Ceiling: 2500
Heat Index: 45°   Visibility: 15mi
Dew Point: 39°   Wind: 23mph
Humidity: 81%   Direction: 250°WSW
Pressure: 29.77"   Gusts: 38mph
Location:  48.07°N, 52.93°W
Report Text: CYYT 210500Z 25020G33KT 15SM BKN025 07/04 A2977 RMK SC5 SLP085
Loading
Personal Weather Stations






























Interactive Weather Map
Tropical Storm Tracking
New forecast layout! Learn more

10-Day Weather Forecast

Advertisements
Track Severe Weather on mobile